Time;durP1;ratioP1;P1;durP2;ratioP2;P2;SDS_P1;SDS_P2;PMS_P1;PMS_P2;Temp;Humidity;BMP_temperature;BMP_pressure;BME280_temperature;BME280_humidity;BME280_pressure;Samples;Min_cycle;Max_cycle;Signal;HPM_P1;HPM_P2
2024/03/26 00:02:23;;;;;;;;;;;23.00;41.10;;;;;;5076070;28;19916;-42
2024/03/26 00:04:49;;;;;;;;;;;23.00;41.10;;;;;;5064025;28;19916;-41
2024/03/26 00:07:15;;;;;;;;;;;23.00;41.10;;;;;;5073632;28;19912;-43
2024/03/26 00:09:41;;;;;;;;;;;23.10;41.30;;;;;;5072850;28;19939;-42
2024/03/26 00:12:07;;;;;;;;;;;23.10;41.40;;;;;;5063465;28;19944;-45
2024/03/26 00:14:33;;;;;;;;;;;23.10;41.40;;;;;;5077611;28;20451;-40
2024/03/26 00:16:59;;;;;;;;;;;23.10;41.30;;;;;;5077743;28;19978;-39
2024/03/26 00:19:25;;;;;;;;;;;23.00;41.30;;;;;;5062607;28;19908;-40
2024/03/26 00:21:51;;;;;;;;;;;23.00;41.30;;;;;;5071625;28;19923;-43
2024/03/26 00:24:17;;;;;;;;;;;23.00;41.30;;;;;;5080970;28;19912;-43
2024/03/26 00:26:43;;;;;;;;;;;22.90;41.10;;;;;;5073211;28;19980;-43
2024/03/26 00:29:09;;;;;;;;;;;23.00;41.40;;;;;;5062754;28;19912;-42
2024/03/26 00:31:35;;;;;;;;;;;23.00;41.40;;;;;;5063058;28;19919;-43
2024/03/26 00:34:01;;;;;;;;;;;23.00;41.40;;;;;;5070300;28;19956;-41
2024/03/26 00:36:27;;;;;;;;;;;23.00;41.40;;;;;;5068947;28;19928;-45
2024/03/26 00:38:53;;;;;;;;;;;22.90;41.30;;;;;;5065670;28;20369;-46
2024/03/26 00:41:19;;;;;;;;;;;22.90;41.40;;;;;;5076159;28;19999;-41
2024/03/26 00:43:45;;;;;;;;;;;22.90;41.30;;;;;;5070324;28;19971;-46
2024/03/26 00:46:11;;;;;;;;;;;22.90;41.20;;;;;;5072340;28;19920;-46
2024/03/26 00:48:37;;;;;;;;;;;22.90;41.90;;;;;;5079814;28;19908;-43
2024/03/26 00:51:03;;;;;;;;;;;22.90;41.60;;;;;;5077710;28;20000;-45
2024/03/26 00:53:29;;;;;;;;;;;22.90;41.60;;;;;;5070220;28;19908;-46
2024/03/26 00:55:55;;;;;;;;;;;22.90;41.50;;;;;;5064548;28;19917;-43
2024/03/26 00:58:22;;;;;;;;;;;22.90;41.50;;;;;;5068197;28;20404;-42
2024/03/26 01:00:50;;;;;;;;;;;22.90;41.50;;;;;;5072398;28;19911;-46
2024/03/26 01:03:16;;;;;;;;;;;22.90;41.50;;;;;;5075316;28;19913;-45
2024/03/26 01:05:53;;;;;;;;;;;22.80;41.40;;;;;;5077584;28;20442;-43
2024/03/26 01:08:21;;;;;;;;;;;22.80;41.50;;;;;;5071775;28;20471;-42
2024/03/26 01:10:48;;;;;;;;;;;22.90;41.70;;;;;;5075813;28;19916;-41
2024/03/26 01:13:16;;;;;;;;;;;22.90;41.70;;;;;;5077237;28;19913;-41
2024/03/26 01:15:42;;;;;;;;;;;22.90;41.70;;;;;;5076007;28;19915;-42
2024/03/26 01:18:09;;;;;;;;;;;22.90;41.70;;;;;;5072697;28;19920;-46
2024/03/26 01:20:35;;;;;;;;;;;22.80;41.60;;;;;;5066356;28;19908;-44
2024/03/26 01:23:01;;;;;;;;;;;22.80;41.60;;;;;;5075924;28;19991;-44
2024/03/26 01:25:27;;;;;;;;;;;22.80;41.60;;;;;;5067489;28;19908;-44
2024/03/26 01:27:55;;;;;;;;;;;22.80;41.70;;;;;;5068566;28;19912;-45
2024/03/26 01:30:21;;;;;;;;;;;22.80;41.80;;;;;;5078666;28;20425;-44
2024/03/26 01:32:47;;;;;;;;;;;22.90;41.80;;;;;;5080131;28;19904;-40
2024/03/26 01:35:13;;;;;;;;;;;22.90;41.80;;;;;;5083819;28;19954;-43
2024/03/26 01:37:39;;;;;;;;;;;22.80;41.70;;;;;;5083522;28;19943;-48
2024/03/26 01:40:08;;;;;;;;;;;22.80;41.70;;;;;;5075558;28;19991;-43
2024/03/26 01:42:35;;;;;;;;;;;22.80;41.80;;;;;;5083508;28;19904;-42
2024/03/26 01:45:04;;;;;;;;;;;22.80;41.70;;;;;;5081276;28;19921;-44
2024/03/26 01:47:34;;;;;;;;;;;22.70;41.80;;;;;;5078630;28;20612;-43
2024/03/26 01:50:01;;;;;;;;;;;22.80;41.90;;;;;;5082140;28;19913;-42
2024/03/26 01:52:27;;;;;;;;;;;22.80;42.00;;;;;;5071634;28;19947;-45
2024/03/26 01:54:54;;;;;;;;;;;22.80;41.90;;;;;;5081687;28;19908;-39
2024/03/26 01:57:22;;;;;;;;;;;22.80;41.90;;;;;;5076448;28;19984;-43
2024/03/26 01:59:48;;;;;;;;;;;22.80;41.90;;;;;;5074737;28;19988;-45
2024/03/26 02:02:14;;;;;;;;;;;22.80;41.90;;;;;;5076491;28;19908;-43
2024/03/26 02:04:41;;;;;;;;;;;22.70;41.80;;;;;;5068135;28;19913;-41
2024/03/26 02:07:07;;;;;;;;;;;22.70;41.80;;;;;;5082576;28;19920;-41
2024/03/26 02:09:33;;;;;;;;;;;22.80;42.10;;;;;;5082691;28;20376;-40
2024/03/26 02:11:59;;;;;;;;;;;22.80;42.10;;;;;;5074468;28;19911;-41
2024/03/26 02:14:26;;;;;;;;;;;22.80;42.10;;;;;;5083158;28;19918;-39
2024/03/26 02:16:52;;;;;;;;;;;22.80;42.10;;;;;;5068515;28;19920;-44
2024/03/26 02:19:19;;;;;;;;;;;22.80;42.10;;;;;;5085294;28;19935;-40
2024/03/26 02:21:45;;;;;;;;;;;22.70;42.00;;;;;;5075189;28;19913;-43
2024/03/26 02:24:11;;;;;;;;;;;22.70;42.00;;;;;;5068213;28;19993;-41
2024/03/26 02:26:37;;;;;;;;;;;22.70;42.00;;;;;;5063970;28;19913;-41
2024/03/26 02:29:03;;;;;;;;;;;22.70;42.30;;;;;;5072100;28;19912;-40
2024/03/26 02:31:30;;;;;;;;;;;22.80;42.30;;;;;;5077434;28;20019;-42
2024/03/26 02:33:55;;;;;;;;;;;22.80;42.30;;;;;;5072363;28;19908;-43
2024/03/26 02:36:21;;;;;;;;;;;22.80;42.30;;;;;;5066227;28;19924;-42
2024/03/26 02:38:47;;;;;;;;;;;22.70;42.30;;;;;;5064580;28;19916;-41
2024/03/26 02:41:14;;;;;;;;;;;22.70;42.30;;;;;;5071749;28;19908;-41
2024/03/26 02:43:42;;;;;;;;;;;22.70;42.30;;;;;;5065717;28;19940;-43
2024/03/26 02:46:07;;;;;;;;;;;22.70;42.40;;;;;;5064328;28;19948;-46
2024/03/26 02:48:33;;;;;;;;;;;22.80;42.60;;;;;;5065524;28;19905;-41
2024/03/26 02:50:59;;;;;;;;;;;22.80;42.60;;;;;;5071358;28;19999;-43
2024/03/26 02:53:26;;;;;;;;;;;22.80;42.60;;;;;;5070617;28;19905;-41
2024/03/26 02:55:52;;;;;;;;;;;22.80;42.60;;;;;;5081119;28;19923;-41
2024/03/26 02:58:18;;;;;;;;;;;22.70;42.50;;;;;;5074597;28;19920;-40
2024/03/26 03:00:45;;;;;;;;;;;22.70;42.50;;;;;;5073291;28;19911;-41
2024/03/26 03:03:11;;;;;;;;;;;22.70;42.60;;;;;;5071681;28;19960;-43
2024/03/26 03:05:37;;;;;;;;;;;22.70;42.70;;;;;;5071175;28;19908;-41
2024/03/26 03:08:03;;;;;;;;;;;22.70;42.80;;;;;;5065764;28;19954;-42
2024/03/26 03:10:29;;;;;;;;;;;22.80;42.90;;;;;;5063906;28;19905;-41
2024/03/26 03:12:56;;;;;;;;;;;22.70;42.80;;;;;;5065166;28;19919;-43
2024/03/26 03:15:22;;;;;;;;;;;22.70;42.80;;;;;;5072592;28;19909;-43
2024/03/26 03:17:48;;;;;;;;;;;22.70;42.80;;;;;;5065314;28;19939;-40
2024/03/26 03:20:14;;;;;;;;;;;22.70;42.80;;;;;;5071372;28;19926;-42
2024/03/26 03:22:43;;;;;;;;;;;22.70;42.80;;;;;;5075258;28;20333;-43
2024/03/26 03:25:09;;;;;;;;;;;22.70;43.10;;;;;;5077173;28;19913;-42
2024/03/26 03:27:35;;;;;;;;;;;22.80;43.20;;;;;;5073115;28;19909;-42
2024/03/26 03:30:01;;;;;;;;;;;22.80;43.20;;;;;;5063525;28;19913;-44
2024/03/26 03:32:26;;;;;;;;;;;22.70;43.10;;;;;;5064903;28;19930;-43
2024/03/26 03:34:53;;;;;;;;;;;22.70;43.10;;;;;;5078289;28;19916;-43
2024/03/26 03:37:19;;;;;;;;;;;22.70;43.10;;;;;;5064633;28;19978;-46
2024/03/26 03:39:44;;;;;;;;;;;22.70;43.10;;;;;;5070090;28;20396;-43
2024/03/26 03:42:10;;;;;;;;;;;22.70;43.20;;;;;;5070528;28;19913;-44
2024/03/26 03:44:36;;;;;;;;;;;22.70;43.30;;;;;;5063325;28;20025;-44
2024/03/26 03:47:02;;;;;;;;;;;22.70;43.40;;;;;;5080708;28;19912;-42
2024/03/26 03:49:28;;;;;;;;;;;22.80;43.40;;;;;;5080671;28;19908;-42
2024/03/26 03:51:56;;;;;;;;;;;22.70;43.40;;;;;;5081771;28;19919;-43
2024/03/26 03:54:25;;;;;;;;;;;22.70;43.40;;;;;;5077073;28;19924;-40
2024/03/26 03:56:51;;;;;;;;;;;22.70;43.40;;;;;;5071587;28;19920;-42
2024/03/26 03:59:17;;;;;;;;;;;22.70;43.40;;;;;;5076550;28;19919;-40
2024/03/26 04:01:43;;;;;;;;;;;22.70;43.50;;;;;;5070280;28;19909;-43
2024/03/26 04:04:09;;;;;;;;;;;22.70;43.60;;;;;;5073994;28;19912;-42
2024/03/26 04:06:35;;;;;;;;;;;22.80;43.70;;;;;;5070387;28;19940;-43
2024/03/26 04:09:01;;;;;;;;;;;22.80;43.70;;;;;;5070591;28;20408;-40
2024/03/26 04:11:27;;;;;;;;;;;22.70;43.70;;;;;;5070011;28;19932;-41
2024/03/26 04:13:53;;;;;;;;;;;22.70;43.60;;;;;;5079268;28;19912;-40
2024/03/26 04:16:18;;;;;;;;;;;22.70;43.60;;;;;;5077398;28;19951;-39
2024/03/26 04:18:47;;;;;;;;;;;22.70;43.70;;;;;;5072062;28;19977;-40
2024/03/26 04:21:13;;;;;;;;;;;22.70;43.70;;;;;;5073449;28;19919;-41
2024/03/26 04:23:39;;;;;;;;;;;22.70;43.90;;;;;;5078704;28;19912;-44
2024/03/26 04:26:05;;;;;;;;;;;22.80;44.00;;;;;;5066888;28;19958;-41
2024/03/26 04:28:31;;;;;;;;;;;22.80;44.00;;;;;;5074207;28;19912;-42
2024/03/26 04:30:56;;;;;;;;;;;22.80;44.00;;;;;;5063335;28;19943;-42
2024/03/26 04:33:22;;;;;;;;;;;22.70;43.90;;;;;;5070584;28;19908;-41
2024/03/26 04:35:48;;;;;;;;;;;22.70;43.90;;;;;;5065861;28;19935;-40
2024/03/26 04:38:14;;;;;;;;;;;22.70;43.90;;;;;;5077146;28;19921;-40
2024/03/26 04:40:40;;;;;;;;;;;22.70;44.00;;;;;;5074419;28;19919;-43
2024/03/26 04:43:06;;;;;;;;;;;22.70;44.20;;;;;;5067003;28;19912;-41
2024/03/26 04:45:32;;;;;;;;;;;22.80;44.20;;;;;;5074324;28;19984;-42
2024/03/26 04:47:58;;;;;;;;;;;22.80;44.20;;;;;;5066188;28;19947;-41
2024/03/26 04:50:25;;;;;;;;;;;22.80;44.20;;;;;;5066919;28;19913;-40
2024/03/26 04:52:51;;;;;;;;;;;22.70;44.20;;;;;;5072213;28;19919;-41
2024/03/26 04:55:16;;;;;;;;;;;22.70;44.20;;;;;;5078247;28;19913;-46
2024/03/26 04:57:42;;;;;;;;;;;22.70;44.20;;;;;;5077533;28;19982;-41
2024/03/26 05:00:12;;;;;;;;;;;22.70;44.20;;;;;;5067732;28;19913;-44
2024/03/26 05:02:38;;;;;;;;;;;22.70;44.30;;;;;;5068117;28;20019;-44
2024/03/26 05:05:04;;;;;;;;;;;22.80;44.40;;;;;;5076500;28;19955;-41
2024/03/26 05:07:31;;;;;;;;;;;22.80;44.40;;;;;;5078268;28;20419;-42
2024/03/26 05:09:57;;;;;;;;;;;22.80;44.40;;;;;;5066009;28;22205;-44
2024/03/26 05:12:23;;;;;;;;;;;22.80;44.40;;;;;;5079438;28;19909;-41
2024/03/26 05:14:49;;;;;;;;;;;22.70;44.40;;;;;;5066997;28;20003;-46
2024/03/26 05:17:15;;;;;;;;;;;22.70;44.40;;;;;;5077577;28;19942;-42
2024/03/26 05:19:41;;;;;;;;;;;22.70;44.40;;;;;;5076864;28;19919;-45
2024/03/26 05:22:07;;;;;;;;;;;22.70;44.40;;;;;;5067543;28;20369;-43
2024/03/26 05:24:34;;;;;;;;;;;22.70;44.60;;;;;;5076031;28;19921;-42
2024/03/26 05:27:00;;;;;;;;;;;22.80;44.60;;;;;;5075849;28;20373;-40
2024/03/26 05:29:26;;;;;;;;;;;22.80;44.60;;;;;;5077177;28;19915;-43
2024/03/26 05:31:51;;;;;;;;;;;22.80;44.70;;;;;;5074277;28;19916;-41
2024/03/26 05:34:17;;;;;;;;;;;22.70;44.60;;;;;;5072863;28;19913;-41
2024/03/26 05:36:43;;;;;;;;;;;22.70;44.60;;;;;;5073057;28;20411;-41
2024/03/26 05:39:11;;;;;;;;;;;22.70;44.60;;;;;;5072601;28;19913;-41
2024/03/26 05:41:37;;;;;;;;;;;22.70;44.60;;;;;;5065331;28;19920;-43
2024/03/26 05:44:03;;;;;;;;;;;22.70;44.70;;;;;;5066804;28;19923;-42
2024/03/26 05:46:30;;;;;;;;;;;22.80;44.80;;;;;;5064183;28;19956;-42
2024/03/26 05:48:56;;;;;;;;;;;22.80;44.80;;;;;;5073036;28;20046;-42
2024/03/26 05:51:21;;;;;;;;;;;22.70;44.70;;;;;;5078503;28;19931;-41
2024/03/26 05:53:47;;;;;;;;;;;22.70;44.70;;;;;;5068988;28;19988;-41
2024/03/26 05:56:13;;;;;;;;;;;22.70;44.70;;;;;;5069443;28;19950;-43
2024/03/26 05:58:39;;;;;;;;;;;22.70;44.70;;;;;;5076393;28;20010;-43
2024/03/26 06:01:05;;;;;;;;;;;22.70;44.80;;;;;;5080155;28;19912;-42
2024/03/26 06:03:31;;;;;;;;;;;22.70;45.00;;;;;;5078724;28;20006;-41
2024/03/26 06:05:57;;;;;;;;;;;22.80;45.00;;;;;;5068285;28;19970;-42
2024/03/26 06:08:23;;;;;;;;;;;22.80;45.00;;;;;;5078791;28;19912;-41
2024/03/26 06:10:49;;;;;;;;;;;22.80;45.00;;;;;;5080944;28;19916;-43
2024/03/26 06:13:14;;;;;;;;;;;22.70;45.00;;;;;;5070737;28;19912;-42
2024/03/26 06:15:40;;;;;;;;;;;22.70;44.90;;;;;;5074512;28;19923;-42
2024/03/26 06:18:06;;;;;;;;;;;22.70;45.00;;;;;;5073272;28;19970;-41
2024/03/26 06:20:32;;;;;;;;;;;22.70;45.00;;;;;;5073130;28;19962;-42
2024/03/26 06:22:58;;;;;;;;;;;22.70;45.10;;;;;;5071047;28;20015;-42
2024/03/26 06:25:24;;;;;;;;;;;22.70;45.20;;;;;;5075601;28;19912;-42
2024/03/26 06:27:50;;;;;;;;;;;22.80;45.20;;;;;;5073692;28;19909;-40
2024/03/26 06:30:16;;;;;;;;;;;22.80;45.20;;;;;;5067475;28;20641;-41
2024/03/26 06:32:41;;;;;;;;;;;22.80;45.10;;;;;;5081305;28;19963;-41
2024/03/26 06:35:08;;;;;;;;;;;22.70;45.10;;;;;;5079496;28;19908;-43
2024/03/26 06:37:33;;;;;;;;;;;22.70;45.10;;;;;;5074632;28;19920;-41
2024/03/26 06:39:59;;;;;;;;;;;22.70;45.10;;;;;;5071635;28;20498;-41
2024/03/26 06:42:26;;;;;;;;;;;22.70;45.10;;;;;;5072207;28;19936;-42
2024/03/26 06:44:53;;;;;;;;;;;22.70;45.30;;;;;;5071466;28;19917;-43
2024/03/26 06:47:18;;;;;;;;;;;22.80;45.30;;;;;;5065351;28;19912;-44
2024/03/26 06:49:44;;;;;;;;;;;22.80;45.30;;;;;;5071984;28;20462;-41
2024/03/26 06:52:10;;;;;;;;;;;22.80;45.30;;;;;;5072499;28;19909;-45
2024/03/26 06:54:36;;;;;;;;;;;22.70;45.30;;;;;;5076161;28;19919;-45
2024/03/26 06:57:02;;;;;;;;;;;22.70;45.30;;;;;;5078407;28;19920;-41
2024/03/26 06:59:28;;;;;;;;;;;22.70;45.30;;;;;;5077085;28;19919;-43
2024/03/26 07:01:54;;;;;;;;;;;22.70;45.30;;;;;;5080472;28;19974;-44
2024/03/26 07:04:20;;;;;;;;;;;22.70;45.40;;;;;;5081671;28;19919;-42
2024/03/26 07:06:45;;;;;;;;;;;22.70;45.50;;;;;;5080039;28;19935;-41
2024/03/26 07:09:11;;;;;;;;;;;22.80;45.50;;;;;;5081448;28;19912;-40
2024/03/26 07:11:37;;;;;;;;;;;22.80;46.10;;;;;;5081537;28;19916;-40
2024/03/26 07:14:03;;;;;;;;;;;22.80;45.50;;;;;;5073224;28;19912;-41
2024/03/26 07:16:29;;;;;;;;;;;22.70;45.40;;;;;;5067766;28;19913;-41
2024/03/26 07:18:55;;;;;;;;;;;22.70;45.50;;;;;;5072211;28;19932;-43
2024/03/26 07:21:21;;;;;;;;;;;22.70;45.50;;;;;;5071684;28;19913;-42
2024/03/26 07:23:47;;;;;;;;;;;22.70;45.50;;;;;;5071139;28;19909;-40
2024/03/26 07:26:13;;;;;;;;;;;22.70;46.20;;;;;;5089258;28;19930;-43
2024/03/26 07:28:39;;;;;;;;;;;22.80;45.70;;;;;;5079667;28;20300;-41
2024/03/26 07:31:05;;;;;;;;;;;22.80;45.70;;;;;;5071785;28;19919;-43
2024/03/26 07:33:31;;;;;;;;;;;22.70;46.20;;;;;;5070757;28;19919;-41
2024/03/26 07:35:56;;;;;;;;;;;22.70;45.60;;;;;;5079292;28;19912;-42
2024/03/26 07:38:22;;;;;;;;;;;22.70;45.60;;;;;;5076263;28;19917;-43
2024/03/26 07:40:48;;;;;;;;;;;22.70;45.60;;;;;;5071116;28;19913;-42
2024/03/26 07:43:14;;;;;;;;;;;22.70;45.70;;;;;;5070717;28;20420;-44
2024/03/26 07:45:40;;;;;;;;;;;22.70;45.80;;;;;;5063948;28;19916;-41
2024/03/26 07:48:06;;;;;;;;;;;22.70;45.80;;;;;;5065615;28;19918;-40
2024/03/26 07:50:32;;;;;;;;;;;22.70;45.80;;;;;;5074273;28;19917;-40
2024/03/26 07:52:58;;;;;;;;;;;22.70;45.80;;;;;;5073216;28;19954;-40
2024/03/26 07:55:24;;;;;;;;;;;22.70;45.80;;;;;;5074254;28;19967;-41
2024/03/26 07:57:50;;;;;;;;;;;22.70;45.80;;;;;;5072503;28;19924;-41
2024/03/26 08:00:16;;;;;;;;;;;22.70;45.80;;;;;;5080170;28;20480;-39
2024/03/26 08:02:42;;;;;;;;;;;22.70;45.80;;;;;;5064129;28;19924;-39
2024/03/26 08:05:08;;;;;;;;;;;22.70;46.00;;;;;;5073467;28;19908;-40
2024/03/26 08:07:34;;;;;;;;;;;22.70;46.00;;;;;;5074850;28;19917;-45
2024/03/26 08:10:00;;;;;;;;;;;22.70;46.00;;;;;;5072429;28;19959;-42
2024/03/26 08:12:26;;;;;;;;;;;22.70;46.00;;;;;;5073947;28;19915;-43
2024/03/26 08:14:52;;;;;;;;;;;22.70;46.00;;;;;;5085316;28;19971;-40
2024/03/26 08:17:18;;;;;;;;;;;22.70;46.00;;;;;;5074862;28;19921;-40
2024/03/26 08:19:44;;;;;;;;;;;22.70;46.10;;;;;;5074840;28;19916;-40
2024/03/26 08:22:09;;;;;;;;;;;22.70;46.10;;;;;;5075912;28;19943;-42
2024/03/26 08:24:35;;;;;;;;;;;22.70;46.10;;;;;;5078573;28;19936;-42
2024/03/26 08:27:01;;;;;;;;;;;22.70;46.20;;;;;;5077265;28;20005;-44
2024/03/26 08:29:28;;;;;;;;;;;22.70;46.20;;;;;;5078213;28;20065;-46
2024/03/26 08:31:54;;;;;;;;;;;22.70;46.20;;;;;;5070983;28;19919;-42
2024/03/26 08:34:19;;;;;;;;;;;22.70;46.20;;;;;;5079706;28;19999;-46
2024/03/26 08:36:45;;;;;;;;;;;22.70;46.20;;;;;;5081923;28;20316;-43
2024/03/26 08:39:13;;;;;;;;;;;22.70;46.20;;;;;;5074794;28;19923;-43
2024/03/26 08:41:39;;;;;;;;;;;22.70;46.20;;;;;;5077009;28;20008;-44
2024/03/26 08:44:05;;;;;;;;;;;22.70;46.20;;;;;;5081654;28;19924;-45
2024/03/26 08:46:31;;;;;;;;;;;22.70;46.30;;;;;;5074219;28;20134;-44
2024/03/26 08:48:58;;;;;;;;;;;22.70;46.40;;;;;;5074785;28;20562;-42
2024/03/26 08:51:27;;;;;;;;;;;22.80;46.40;;;;;;5073950;28;19983;-44
2024/03/26 08:53:54;;;;;;;;;;;22.70;46.30;;;;;;5072872;28;19912;-40
2024/03/26 08:56:20;;;;;;;;;;;22.70;46.30;;;;;;5071285;28;19912;-41
2024/03/26 08:58:46;;;;;;;;;;;22.70;46.40;;;;;;5076517;28;19916;-45
2024/03/26 09:01:12;;;;;;;;;;;22.70;46.40;;;;;;5074436;28;19923;-41
2024/03/26 09:03:38;;;;;;;;;;;22.70;46.40;;;;;;5081296;28;19915;-43
2024/03/26 09:06:04;;;;;;;;;;;22.70;46.50;;;;;;5076998;28;19909;-41
2024/03/26 09:08:30;;;;;;;;;;;22.80;46.50;;;;;;5077515;28;19930;-42
2024/03/26 09:10:56;;;;;;;;;;;22.80;46.50;;;;;;5074815;28;19913;-42
2024/03/26 09:13:22;;;;;;;;;;;22.80;46.50;;;;;;5072040;28;19916;-41
2024/03/26 09:15:47;;;;;;;;;;;22.80;46.60;;;;;;5076625;28;20463;-42
2024/03/26 09:18:13;;;;;;;;;;;22.70;46.60;;;;;;5066558;28;19917;-40
2024/03/26 09:20:40;;;;;;;;;;;22.70;46.60;;;;;;5066409;28;19955;-41
2024/03/26 09:23:06;;;;;;;;;;;22.70;46.50;;;;;;5076848;28;20673;-44
2024/03/26 09:25:32;;;;;;;;;;;22.70;46.60;;;;;;5084700;28;19916;-43
2024/03/26 09:27:58;;;;;;;;;;;22.70;46.60;;;;;;5078391;28;19913;-45
2024/03/26 09:30:27;;;;;;;;;;;22.80;46.70;;;;;;5079985;28;19919;-40
2024/03/26 09:32:54;;;;;;;;;;;22.80;46.70;;;;;;5076715;28;19963;-40
2024/03/26 09:35:20;;;;;;;;;;;22.80;46.70;;;;;;5075912;28;19980;-44
2024/03/26 09:37:45;;;;;;;;;;;22.80;46.70;;;;;;5076064;28;20007;-42
2024/03/26 09:40:12;;;;;;;;;;;22.70;46.70;;;;;;5070142;28;20387;-40
2024/03/26 09:42:38;;;;;;;;;;;22.70;46.70;;;;;;5076952;28;19909;-42
2024/03/26 09:45:05;;;;;;;;;;;22.70;46.60;;;;;;5066665;28;20042;-42
2024/03/26 09:47:31;;;;;;;;;;;22.70;46.70;;;;;;5066332;28;20478;-45
2024/03/26 09:49:57;;;;;;;;;;;22.70;46.90;;;;;;5068136;28;19913;-40
2024/03/26 09:52:23;;;;;;;;;;;22.80;46.80;;;;;;5077667;28;19915;-43
2024/03/26 09:54:49;;;;;;;;;;;22.80;46.80;;;;;;5076099;28;19909;-41
2024/03/26 09:57:15;;;;;;;;;;;22.80;46.80;;;;;;5082839;28;19920;-41
2024/03/26 09:59:40;;;;;;;;;;;22.70;46.80;;;;;;5067325;28;19920;-42
2024/03/26 10:02:07;;;;;;;;;;;22.70;46.90;;;;;;5074013;28;19919;-41
2024/03/26 10:04:33;;;;;;;;;;;22.70;46.90;;;;;;5072610;28;19919;-43
2024/03/26 10:06:59;;;;;;;;;;;22.70;46.90;;;;;;5065415;28;19951;-41
2024/03/26 10:09:25;;;;;;;;;;;22.70;46.90;;;;;;5075085;28;19920;-43
2024/03/26 10:11:50;;;;;;;;;;;22.70;47.00;;;;;;5067967;28;19913;-40
2024/03/26 10:14:16;;;;;;;;;;;22.80;47.00;;;;;;5072246;28;19912;-41
2024/03/26 10:16:42;;;;;;;;;;;22.80;47.00;;;;;;5065701;28;19943;-42
2024/03/26 10:19:09;;;;;;;;;;;22.80;47.00;;;;;;5072267;28;19913;-43
2024/03/26 10:21:35;;;;;;;;;;;22.70;47.00;;;;;;5079391;28;19920;-41
2024/03/26 10:24:01;;;;;;;;;;;22.70;47.00;;;;;;5084666;28;19916;-43
2024/03/26 10:26:27;;;;;;;;;;;22.70;47.00;;;;;;5065426;28;19924;-43
2024/03/26 10:28:53;;;;;;;;;;;22.70;47.00;;;;;;5065585;28;19913;-41
2024/03/26 10:31:19;;;;;;;;;;;22.70;47.10;;;;;;5065472;28;19916;-41
2024/03/26 10:33:48;;;;;;;;;;;22.70;47.10;;;;;;5079847;28;19987;-45
2024/03/26 10:36:15;;;;;;;;;;;22.80;47.10;;;;;;5068956;28;19908;-41
2024/03/26 10:38:41;;;;;;;;;;;22.80;47.10;;;;;;5075674;28;19916;-42
2024/03/26 10:41:16;;;;;;;;;;;22.80;47.20;;;;;;5072538;28;19909;-42
2024/03/26 10:43:42;;;;;;;;;;;22.70;47.10;;;;;;5073108;28;19993;-41
2024/03/26 10:46:08;;;;;;;;;;;22.70;47.10;;;;;;5080089;28;20281;-41
2024/03/26 10:48:33;;;;;;;;;;;22.70;47.20;;;;;;5073671;28;19915;-42
2024/03/26 10:50:59;;;;;;;;;;;22.70;47.20;;;;;;5073140;28;19920;-41
2024/03/26 10:53:25;;;;;;;;;;;22.70;47.20;;;;;;5071333;28;19905;-45
2024/03/26 10:55:51;;;;;;;;;;;22.70;47.30;;;;;;5071436;28;19935;-41
2024/03/26 10:58:17;;;;;;;;;;;22.80;47.30;;;;;;5063485;28;19921;-41
2024/03/26 11:00:43;;;;;;;;;;;22.80;47.30;;;;;;5064910;28;19904;-44
2024/03/26 11:03:09;;;;;;;;;;;22.80;47.30;;;;;;5065259;28;19944;-40
2024/03/26 11:05:35;;;;;;;;;;;22.70;47.20;;;;;;5069642;28;19908;-42
2024/03/26 11:08:01;;;;;;;;;;;22.70;47.30;;;;;;5071501;28;19912;-43
2024/03/26 11:10:27;;;;;;;;;;;22.70;47.20;;;;;;5077707;28;19965;-41
2024/03/26 11:12:53;;;;;;;;;;;22.70;47.30;;;;;;5081060;28;19915;-45
2024/03/26 11:15:19;;;;;;;;;;;22.70;47.40;;;;;;5081993;28;19915;-42
2024/03/26 11:18:11;;;;;;;;;;;22.70;47.40;;;;;;5067516;28;19923;-42
2024/03/26 11:20:37;;;;;;;;;;;22.70;47.30;;;;;;5078708;28;19935;-44
2024/03/26 11:23:03;;;;;;;;;;;22.80;47.40;;;;;;5080705;28;20433;-42
2024/03/26 11:25:30;;;;;;;;;;;22.70;47.30;;;;;;5081478;28;19934;-42
2024/03/26 11:27:58;;;;;;;;;;;22.70;47.40;;;;;;5074299;28;19904;-44
2024/03/26 11:30:27;;;;;;;;;;;22.70;47.40;;;;;;5081807;28;19912;-43
2024/03/26 11:32:53;;;;;;;;;;;22.70;47.40;;;;;;5079933;28;19904;-43
2024/03/26 11:35:24;;;;;;;;;;;22.70;47.50;;;;;;5081532;28;19919;-41
2024/03/26 11:37:51;;;;;;;;;;;22.70;47.40;;;;;;5080462;28;19912;-42
2024/03/26 11:40:16;;;;;;;;;;;22.80;47.50;;;;;;5072400;28;19908;-43
2024/03/26 11:42:46;;;;;;;;;;;22.80;47.50;;;;;;5081049;28;19936;-42
2024/03/26 11:45:12;;;;;;;;;;;22.80;47.50;;;;;;5073742;28;19940;-41
2024/03/26 11:47:38;;;;;;;;;;;22.70;47.50;;;;;;5081372;28;19908;-42
2024/03/26 11:50:04;;;;;;;;;;;22.70;47.50;;;;;;5080379;28;19913;-47
2024/03/26 11:52:29;;;;;;;;;;;22.70;47.50;;;;;;5081724;28;19976;-42
2024/03/26 11:54:59;;;;;;;;;;;22.70;47.60;;;;;;5073723;28;19915;-44
2024/03/26 11:57:25;;;;;;;;;;;22.70;47.60;;;;;;5080891;28;19920;-42
2024/03/26 11:59:52;;;;;;;;;;;22.80;47.70;;;;;;5080174;28;19919;-44
2024/03/26 12:02:18;;;;;;;;;;;22.80;47.70;;;;;;5081427;28;19912;-44
2024/03/26 12:04:44;;;;;;;;;;;22.80;47.70;;;;;;5080865;28;20003;-44
2024/03/26 12:07:19;;;;;;;;;;;22.80;47.70;;;;;;5079882;28;20353;-42
2024/03/26 12:09:45;;;;;;;;;;;22.70;47.70;;;;;;5072597;28;19935;-42
2024/03/26 12:12:11;;;;;;;;;;;22.70;47.70;;;;;;5065963;28;20752;-42
2024/03/26 12:14:37;;;;;;;;;;;22.70;47.70;;;;;;5081051;28;19909;-45
2024/03/26 12:17:03;;;;;;;;;;;22.70;47.70;;;;;;5073935;28;20029;-42
2024/03/26 12:19:29;;;;;;;;;;;22.70;47.90;;;;;;5074954;28;19931;-42
2024/03/26 12:21:56;;;;;;;;;;;22.80;47.80;;;;;;5071299;28;19908;-43
2024/03/26 12:24:22;;;;;;;;;;;22.80;47.80;;;;;;5075678;28;19921;-44
2024/03/26 12:26:47;;;;;;;;;;;22.80;47.90;;;;;;5077555;28;19995;-42
2024/03/26 12:29:13;;;;;;;;;;;22.80;47.90;;;;;;5072281;28;19916;-43
2024/03/26 12:31:39;;;;;;;;;;;22.70;47.90;;;;;;5079875;28;19912;-43
2024/03/26 12:34:09;;;;;;;;;;;22.70;47.90;;;;;;5064136;28;19915;-43
2024/03/26 12:36:36;;;;;;;;;;;22.70;48.00;;;;;;5070075;28;19916;-43
2024/03/26 12:39:02;;;;;;;;;;;22.70;48.00;;;;;;5064553;28;19935;-43
2024/03/26 12:41:28;;;;;;;;;;;22.70;48.00;;;;;;5108289;28;19951;-45
2024/03/26 12:43:54;;;;;;;;;;;22.80;48.00;;;;;;5079679;28;19920;-44
2024/03/26 12:46:20;;;;;;;;;;;22.80;48.00;;;;;;5080445;28;19912;-44
2024/03/26 12:49:06;;;;;;;;;;;22.80;48.30;;;;;;5043675;28;19923;-47
2024/03/26 12:51:32;;;;;;;;;;;22.70;48.00;;;;;;5044807;28;19928;-44
2024/03/26 12:54:04;;;;;;;;;;;22.70;48.10;;;;;;5044941;28;19913;-43
2024/03/26 12:56:32;;;;;;;;;;;22.70;48.10;;;;;;5042206;28;19913;-42
2024/03/26 12:58:59;;;;;;;;;;;22.70;48.10;;;;;;5044423;28;19918;-41
2024/03/26 13:01:25;;;;;;;;;;;22.70;48.20;;;;;;5049451;28;19912;-44
2024/03/26 13:03:51;;;;;;;;;;;22.80;48.20;;;;;;5046421;28;19909;-42
2024/03/26 13:06:17;;;;;;;;;;;22.80;48.20;;;;;;5050379;28;19913;-42
2024/03/26 13:08:43;;;;;;;;;;;22.80;48.20;;;;;;5051345;28;19980;-41
2024/03/26 13:11:13;;;;;;;;;;;22.80;48.30;;;;;;5045067;28;19936;-42
2024/03/26 13:13:39;;;;;;;;;;;22.70;48.20;;;;;;5050606;28;19916;-42
2024/03/26 13:16:05;;;;;;;;;;;22.70;48.20;;;;;;5044105;28;19920;-42
2024/03/26 13:18:31;;;;;;;;;;;22.70;48.20;;;;;;5055268;28;19921;-44
2024/03/26 13:20:57;;;;;;;;;;;22.70;48.20;;;;;;5049995;28;20406;-41
2024/03/26 13:23:23;;;;;;;;;;;22.70;48.30;;;;;;5048120;28;20386;-41
2024/03/26 13:25:48;;;;;;;;;;;22.80;48.30;;;;;;5051295;28;19920;-41
2024/03/26 13:28:14;;;;;;;;;;;22.80;48.30;;;;;;5073866;28;19919;-42
2024/03/26 13:30:40;;;;;;;;;;;22.80;48.40;;;;;;5081201;28;19916;-44
2024/03/26 13:33:06;;;;;;;;;;;22.80;48.40;;;;;;5066851;28;20470;-42
2024/03/26 13:35:32;;;;;;;;;;;22.80;48.40;;;;;;5072919;28;19923;-44
2024/03/26 13:37:58;;;;;;;;;;;22.80;48.40;;;;;;5074148;28;21646;-42
2024/03/26 13:40:24;;;;;;;;;;;22.70;48.30;;;;;;5079244;28;19913;-44
2024/03/26 13:42:50;;;;;;;;;;;22.70;48.30;;;;;;5068266;28;19908;-43
2024/03/26 13:45:16;;;;;;;;;;;22.70;48.40;;;;;;5070482;28;20034;-42
2024/03/26 13:47:42;;;;;;;;;;;22.80;48.60;;;;;;5077074;28;19917;-42
2024/03/26 13:50:08;;;;;;;;;;;22.80;48.50;;;;;;5072364;28;19915;-43
2024/03/26 13:52:34;;;;;;;;;;;22.80;48.50;;;;;;5072877;28;19912;-42
2024/03/26 13:55:01;;;;;;;;;;;22.80;48.60;;;;;;5075160;28;19917;-45
2024/03/26 13:57:27;;;;;;;;;;;22.80;48.60;;;;;;5081173;28;19959;-44
2024/03/26 13:59:54;;;;;;;;;;;22.80;48.60;;;;;;5082444;28;19943;-43
2024/03/26 14:02:20;;;;;;;;;;;22.70;48.50;;;;;;5072932;28;19909;-42
2024/03/26 14:04:46;;;;;;;;;;;22.70;48.60;;;;;;5065718;28;19920;-44
2024/03/26 14:07:12;;;;;;;;;;;22.70;48.70;;;;;;5071810;28;19912;-45
2024/03/26 14:09:40;;;;;;;;;;;22.80;48.60;;;;;;5072539;28;20003;-42
2024/03/26 14:12:07;;;;;;;;;;;22.80;48.60;;;;;;5073756;28;19939;-42